sensor_id;sensor_type;location;lat;lon;timestamp;pressure;altitude;pressure_sealevel;temperature;humidity
63554;BME280;49699;48.072;7.800;2023-04-26T00:00:30;99534.22;;;7.29;87.42
63554;BME280;49699;48.072;7.800;2023-04-26T00:02:57;99530.78;;;7.29;87.60
63554;BME280;49699;48.072;7.800;2023-04-26T00:05:23;99523.00;;;7.29;87.60
63554;BME280;49699;48.072;7.800;2023-04-26T00:07:49;99522.22;;;7.27;87.57
63554;BME280;49699;48.072;7.800;2023-04-26T00:10:14;99524.09;;;7.23;87.67
63554;BME280;49699;48.072;7.800;2023-04-26T00:12:39;99525.91;;;7.21;87.84
63554;BME280;49699;48.072;7.800;2023-04-26T00:15:05;99533.06;;;7.16;87.80
63554;BME280;49699;48.072;7.800;2023-04-26T00:17:31;99528.97;;;7.11;88.04
63554;BME280;49699;48.072;7.800;2023-04-26T00:19:57;99535.28;;;7.04;88.19
63554;BME280;49699;48.072;7.800;2023-04-26T00:22:22;99534.66;;;6.99;88.44
63554;BME280;49699;48.072;7.800;2023-04-26T00:24:48;99535.75;;;6.93;88.55
63554;BME280;49699;48.072;7.800;2023-04-26T00:27:13;99536.72;;;6.90;88.62
63554;BME280;49699;48.072;7.800;2023-04-26T00:29:39;99538.56;;;6.87;88.77
63554;BME280;49699;48.072;7.800;2023-04-26T00:32:04;99534.38;;;6.84;88.77
63554;BME280;49699;48.072;7.800;2023-04-26T00:34:33;99524.97;;;6.82;88.68
63554;BME280;49699;48.072;7.800;2023-04-26T00:36:59;99526.88;;;6.78;88.61
63554;BME280;49699;48.072;7.800;2023-04-26T00:39:24;99526.28;;;6.72;88.55
63554;BME280;49699;48.072;7.800;2023-04-26T00:41:50;99526.44;;;6.67;89.07
63554;BME280;49699;48.072;7.800;2023-04-26T00:44:16;99530.97;;;6.62;88.89
63554;BME280;49699;48.072;7.800;2023-04-26T00:46:41;99530.13;;;6.61;89.22
63554;BME280;49699;48.072;7.800;2023-04-26T00:49:07;99536.22;;;6.60;89.10
63554;BME280;49699;48.072;7.800;2023-04-26T00:51:32;99532.72;;;6.61;88.98
63554;BME280;49699;48.072;7.800;2023-04-26T00:53:58;99541.44;;;6.59;88.91
63554;BME280;49699;48.072;7.800;2023-04-26T00:56:24;99545.94;;;6.54;88.95
63554;BME280;49699;48.072;7.800;2023-04-26T00:58:50;99544.38;;;6.50;89.17
63554;BME280;49699;48.072;7.800;2023-04-26T01:01:15;99544.50;;;6.47;88.96
63554;BME280;49699;48.072;7.800;2023-04-26T01:03:41;99547.06;;;6.47;89.43
63554;BME280;49699;48.072;7.800;2023-04-26T01:06:08;99541.00;;;6.48;89.40
63554;BME280;49699;48.072;7.800;2023-04-26T01:08:35;99536.69;;;6.48;89.12
63554;BME280;49699;48.072;7.800;2023-04-26T01:11:00;99536.69;;;6.48;89.43
63554;BME280;49699;48.072;7.800;2023-04-26T01:13:26;99539.19;;;6.50;89.06
63554;BME280;49699;48.072;7.800;2023-04-26T01:15:51;99529.72;;;6.50;88.96
63554;BME280;49699;48.072;7.800;2023-04-26T01:18:17;99532.22;;;6.52;89.10
63554;BME280;49699;48.072;7.800;2023-04-26T01:20:42;99523.56;;;6.53;89.08
63554;BME280;49699;48.072;7.800;2023-04-26T01:23:08;99529.72;;;6.50;89.06
63554;BME280;49699;48.072;7.800;2023-04-26T01:25:34;99528.03;;;6.49;89.00
63554;BME280;49699;48.072;7.800;2023-04-26T01:27:59;99531.50;;;6.48;88.96
63554;BME280;49699;48.072;7.800;2023-04-26T01:30:25;99517.72;;;6.48;89.30
63554;BME280;49699;48.072;7.800;2023-04-26T01:32:50;99522.00;;;6.49;89.45
63554;BME280;49699;48.072;7.800;2023-04-26T01:35:16;99517.72;;;6.48;89.22
63554;BME280;49699;48.072;7.800;2023-04-26T01:37:41;99516.94;;;6.46;89.45
63554;BME280;49699;48.072;7.800;2023-04-26T01:40:07;99509.41;;;6.41;89.34
63554;BME280;49699;48.072;7.800;2023-04-26T01:42:35;99511.88;;;6.44;89.61
63554;BME280;49699;48.072;7.800;2023-04-26T01:45:00;99500.59;;;6.45;89.48
63554;BME280;49699;48.072;7.800;2023-04-26T01:47:45;99496.16;;;6.49;89.61
63554;BME280;49699;48.072;7.800;2023-04-26T01:50:11;99495.19;;;6.51;89.44
63554;BME280;49699;48.072;7.800;2023-04-26T01:52:38;99495.19;;;6.51;89.30
63554;BME280;49699;48.072;7.800;2023-04-26T01:55:03;99497.00;;;6.49;89.29
63554;BME280;49699;48.072;7.800;2023-04-26T01:57:29;99497.91;;;6.48;89.50
63554;BME280;49699;48.072;7.800;2023-04-26T01:59:54;99498.75;;;6.49;89.63
63554;BME280;49699;48.072;7.800;2023-04-26T02:02:20;99498.75;;;6.49;89.58
63554;BME280;49699;48.072;7.800;2023-04-26T02:04:46;99508.28;;;6.47;89.38
63554;BME280;49699;48.072;7.800;2023-04-26T02:07:11;99510.25;;;6.42;89.58
63554;BME280;49699;48.072;7.800;2023-04-26T02:09:44;99505.13;;;6.40;89.63
63554;BME280;49699;48.072;7.800;2023-04-26T02:12:10;99502.50;;;6.42;89.66
63554;BME280;49699;48.072;7.800;2023-04-26T02:14:36;99506.03;;;6.39;89.61
63554;BME280;49699;48.072;7.800;2023-04-26T02:17:02;99501.69;;;6.40;89.74
63554;BME280;49699;48.072;7.800;2023-04-26T02:19:28;99506.03;;;6.39;89.86
63554;BME280;49699;48.072;7.800;2023-04-26T02:21:54;99509.47;;;6.40;89.69
63554;BME280;49699;48.072;7.800;2023-04-26T02:24:19;99500.84;;;6.39;89.64
63554;BME280;49699;48.072;7.800;2023-04-26T02:26:46;99505.31;;;6.36;89.78
63554;BME280;49699;48.072;7.800;2023-04-26T02:29:11;99504.47;;;6.35;89.60
63554;BME280;49699;48.072;7.800;2023-04-26T02:31:36;99513.34;;;6.28;89.72
63554;BME280;49699;48.072;7.800;2023-04-26T02:34:02;99506.88;;;6.18;89.77
63554;BME280;49699;48.072;7.800;2023-04-26T02:36:28;99505.41;;;6.11;90.27
63554;BME280;49699;48.072;7.800;2023-04-26T02:38:54;99507.28;;;6.07;90.26
63554;BME280;49699;48.072;7.800;2023-04-26T02:41:20;99506.38;;;6.08;90.56
63554;BME280;49699;48.072;7.800;2023-04-26T02:43:45;99512.41;;;6.09;90.54
63554;BME280;49699;48.072;7.800;2023-04-26T02:46:11;99511.59;;;6.07;90.30
63554;BME280;49699;48.072;7.800;2023-04-26T02:48:37;99510.81;;;6.05;90.41
63554;BME280;49699;48.072;7.800;2023-04-26T02:51:02;99506.72;;;5.99;90.29
63554;BME280;49699;48.072;7.800;2023-04-26T02:53:28;99505.03;;;5.98;90.66
63554;BME280;49699;48.072;7.800;2023-04-26T02:55:53;99515.38;;;5.98;90.49
63554;BME280;49699;48.072;7.800;2023-04-26T02:58:19;99504.25;;;5.96;90.46
63554;BME280;49699;48.072;7.800;2023-04-26T03:00:47;99508.56;;;5.96;90.77
63554;BME280;49699;48.072;7.800;2023-04-26T03:03:13;99508.56;;;5.96;90.79
63554;BME280;49699;48.072;7.800;2023-04-26T03:05:38;99500.88;;;5.94;90.80
63554;BME280;49699;48.072;7.800;2023-04-26T03:08:03;99500.94;;;5.92;90.75
63554;BME280;49699;48.072;7.800;2023-04-26T03:10:29;99508.00;;;5.87;90.43
63554;BME280;49699;48.072;7.800;2023-04-26T03:12:54;99509.06;;;5.82;90.89
63554;BME280;49699;48.072;7.800;2023-04-26T03:15:20;99512.53;;;5.81;91.18
63554;BME280;49699;48.072;7.800;2023-04-26T03:17:45;99501.53;;;5.76;91.08
63554;BME280;49699;48.072;7.800;2023-04-26T03:20:10;99498.25;;;5.72;91.12
63554;BME280;49699;48.072;7.800;2023-04-26T03:22:36;99503.41;;;5.72;90.93
63554;BME280;49699;48.072;7.800;2023-04-26T03:25:02;99499.19;;;5.70;91.27
63554;BME280;49699;48.072;7.800;2023-04-26T03:27:28;99496.66;;;5.68;91.12
63554;BME280;49699;48.072;7.800;2023-04-26T03:29:54;99488.19;;;5.65;91.08
63554;BME280;49699;48.072;7.800;2023-04-26T03:32:20;99490.88;;;5.62;91.19
63554;BME280;49699;48.072;7.800;2023-04-26T03:34:45;99485.81;;;5.58;91.42
63554;BME280;49699;48.072;7.800;2023-04-26T03:37:13;99486.66;;;5.59;91.19
63554;BME280;49699;48.072;7.800;2023-04-26T03:39:38;99478.06;;;5.58;91.39
63554;BME280;49699;48.072;7.800;2023-04-26T03:42:04;99488.41;;;5.58;91.25
63554;BME280;49699;48.072;7.800;2023-04-26T03:44:31;99479.75;;;5.59;91.28
63554;BME280;49699;48.072;7.800;2023-04-26T03:46:57;99483.06;;;5.63;91.45
63554;BME280;49699;48.072;7.800;2023-04-26T03:49:22;99482.91;;;5.68;91.41
63554;BME280;49699;48.072;7.800;2023-04-26T03:51:47;99480.09;;;5.74;91.27
63554;BME280;49699;48.072;7.800;2023-04-26T03:54:14;99481.75;;;5.75;91.15
63554;BME280;49699;48.072;7.800;2023-04-26T03:56:39;99484.41;;;5.73;90.94
63554;BME280;49699;48.072;7.800;2023-04-26T03:59:06;99480.03;;;5.75;91.44
63554;BME280;49699;48.072;7.800;2023-04-26T04:01:31;99482.56;;;5.77;91.27
63554;BME280;49699;48.072;7.800;2023-04-26T04:03:57;99483.28;;;5.80;91.22
63554;BME280;49699;48.072;7.800;2023-04-26T04:06:22;99482.38;;;5.81;91.29
63554;BME280;49699;48.072;7.800;2023-04-26T04:08:48;99486.53;;;5.85;91.19
63554;BME280;49699;48.072;7.800;2023-04-26T04:11:15;99489.91;;;5.89;91.34
63554;BME280;49699;48.072;7.800;2023-04-26T04:13:40;99479.41;;;5.92;90.75
63554;BME280;49699;48.072;7.800;2023-04-26T04:16:06;99480.34;;;5.91;91.18
63554;BME280;49699;48.072;7.800;2023-04-26T04:18:34;99481.94;;;5.93;91.29
63554;BME280;49699;48.072;7.800;2023-04-26T04:21:00;99493.81;;;5.99;91.04
63554;BME280;49699;48.072;7.800;2023-04-26T04:23:25;99490.31;;;6.00;91.03
63554;BME280;49699;48.072;7.800;2023-04-26T04:25:52;99490.25;;;6.02;90.95
63554;BME280;49699;48.072;7.800;2023-04-26T04:28:17;99497.34;;;5.97;90.79
63554;BME280;49699;48.072;7.800;2023-04-26T04:30:43;99491.44;;;5.93;90.73
63554;BME280;49699;48.072;7.800;2023-04-26T04:33:10;99503.50;;;5.92;91.09
63554;BME280;49699;48.072;7.800;2023-04-26T04:35:36;99503.47;;;5.94;91.42
63554;BME280;49699;48.072;7.800;2023-04-26T04:38:03;99506.84;;;5.96;91.22
63554;BME280;49699;48.072;7.800;2023-04-26T04:40:29;99506.03;;;5.94;91.34
63554;BME280;49699;48.072;7.800;2023-04-26T04:42:55;99502.44;;;5.98;91.20
63554;BME280;49699;48.072;7.800;2023-04-26T04:45:23;99502.34;;;6.01;91.17
63554;BME280;49699;48.072;7.800;2023-04-26T04:47:50;99502.22;;;6.04;91.17
63554;BME280;49699;48.072;7.800;2023-04-26T04:50:18;99502.19;;;6.06;91.03
63554;BME280;49699;48.072;7.800;2023-04-26T04:52:43;99500.28;;;6.09;91.25
63554;BME280;49699;48.072;7.800;2023-04-26T04:55:09;99509.50;;;6.16;91.20
63554;BME280;49699;48.072;7.800;2023-04-26T04:57:36;99513.59;;;6.22;91.04
63554;BME280;49699;48.072;7.800;2023-04-26T05:00:02;99515.19;;;6.26;90.94
63554;BME280;49699;48.072;7.800;2023-04-26T05:02:35;99513.34;;;6.28;90.87
63554;BME280;49699;48.072;7.800;2023-04-26T05:05:02;99513.22;;;6.31;90.63
63554;BME280;49699;48.072;7.800;2023-04-26T05:07:29;99516.53;;;6.35;90.74
63554;BME280;49699;48.072;7.800;2023-04-26T05:09:55;99514.63;;;6.40;90.39
63554;BME280;49699;48.072;7.800;2023-04-26T05:12:20;99523.06;;;6.45;90.30
63554;BME280;49699;48.072;7.800;2023-04-26T05:14:45;99522.78;;;6.51;90.34
63554;BME280;49699;48.072;7.800;2023-04-26T05:17:11;99517.38;;;6.57;90.04
63554;BME280;49699;48.072;7.800;2023-04-26T05:19:37;99524.19;;;6.59;89.63
63554;BME280;49699;48.072;7.800;2023-04-26T05:22:02;99523.28;;;6.60;89.76
63554;BME280;49699;48.072;7.800;2023-04-26T05:24:29;99528.31;;;6.63;89.60
63554;BME280;49699;48.072;7.800;2023-04-26T05:26:57;99536.72;;;6.69;89.52
63554;BME280;49699;48.072;7.800;2023-04-26T05:29:41;99536.44;;;6.76;89.35
63554;BME280;49699;48.072;7.800;2023-04-26T05:32:23;99539.66;;;6.81;88.81
63554;BME280;49699;48.072;7.800;2023-04-26T05:35:00;99537.78;;;6.85;88.63
63554;BME280;49699;48.072;7.800;2023-04-26T05:37:25;99541.81;;;6.92;88.51
63554;BME280;49699;48.072;7.800;2023-04-26T05:39:50;99545.19;;;6.94;88.17
63554;BME280;49699;48.072;7.800;2023-04-26T05:42:16;99553.06;;;6.91;88.17
63554;BME280;49699;48.072;7.800;2023-04-26T05:44:41;99572.25;;;6.85;88.23
63554;BME280;49699;48.072;7.800;2023-04-26T05:47:07;99563.38;;;6.71;88.00
63554;BME280;49699;48.072;7.800;2023-04-26T05:49:32;99569.84;;;6.60;88.16
63554;BME280;49699;48.072;7.800;2023-04-26T05:51:58;99572.47;;;6.59;88.98
63554;BME280;49699;48.072;7.800;2023-04-26T05:54:24;99567.31;;;6.59;88.82
63554;BME280;49699;48.072;7.800;2023-04-26T05:56:50;99583.66;;;6.59;88.49
63554;BME280;49699;48.072;7.800;2023-04-26T05:59:16;99587.94;;;6.60;88.61
63554;BME280;49699;48.072;7.800;2023-04-26T06:01:42;99592.97;;;6.63;88.70
63554;BME280;49699;48.072;7.800;2023-04-26T06:04:07;99591.00;;;6.70;88.35
63554;BME280;49699;48.072;7.800;2023-04-26T06:06:42;99589.31;;;6.69;88.17
63554;BME280;49699;48.072;7.800;2023-04-26T06:09:08;99596.22;;;6.69;88.15
63554;BME280;49699;48.072;7.800;2023-04-26T06:11:35;99597.06;;;6.69;88.15
63554;BME280;49699;48.072;7.800;2023-04-26T06:14:00;99590.94;;;6.72;87.91
63554;BME280;49699;48.072;7.800;2023-04-26T06:16:25;99591.53;;;6.78;87.68
63554;BME280;49699;48.072;7.800;2023-04-26T06:18:50;99589.66;;;6.82;87.59
63554;BME280;49699;48.072;7.800;2023-04-26T06:21:16;99581.78;;;6.85;87.53
63554;BME280;49699;48.072;7.800;2023-04-26T06:23:41;99590.16;;;6.91;87.23
63554;BME280;49699;48.072;7.800;2023-04-26T06:26:06;99587.31;;;6.97;86.93
63554;BME280;49699;48.072;7.800;2023-04-26T06:28:32;99576.88;;;6.99;86.63
63554;BME280;49699;48.072;7.800;2023-04-26T06:30:57;99588.22;;;6.96;86.60
63554;BME280;49699;48.072;7.800;2023-04-26T06:33:23;99578.56;;;7.00;86.57
63554;BME280;49699;48.072;7.800;2023-04-26T06:35:49;99570.81;;;7.00;86.53
63554;BME280;49699;48.072;7.800;2023-04-26T06:38:14;99562.06;;;7.03;86.53
63554;BME280;49699;48.072;7.800;2023-04-26T06:40:40;99571.28;;;7.10;86.47
63554;BME280;49699;48.072;7.800;2023-04-26T06:43:06;99566.44;;;7.22;86.21
63554;BME280;49699;48.072;7.800;2023-04-26T06:45:39;99567.53;;;7.37;85.51
63554;BME280;49699;48.072;7.800;2023-04-26T06:48:04;99565.41;;;7.47;85.14
63554;BME280;49699;48.072;7.800;2023-04-26T06:50:31;99558.13;;;7.55;84.64
63554;BME280;49699;48.072;7.800;2023-04-26T06:52:56;99562.16;;;7.62;84.62
63554;BME280;49699;48.072;7.800;2023-04-26T06:55:22;99567.13;;;7.66;83.92
63554;BME280;49699;48.072;7.800;2023-04-26T06:57:48;99566.00;;;7.72;83.82
63554;BME280;49699;48.072;7.800;2023-04-26T07:00:13;99562.19;;;7.81;83.62
63554;BME280;49699;48.072;7.800;2023-04-26T07:02:39;99568.13;;;7.83;83.16
63554;BME280;49699;48.072;7.800;2023-04-26T07:05:04;99564.56;;;7.85;82.78
63554;BME280;49699;48.072;7.800;2023-04-26T07:07:29;99565.19;;;7.90;82.69
63554;BME280;49699;48.072;7.800;2023-04-26T07:09:55;99559.75;;;7.96;82.33
63554;BME280;49699;48.072;7.800;2023-04-26T07:12:20;99565.56;;;8.01;82.22
63554;BME280;49699;48.072;7.800;2023-04-26T07:14:46;99559.25;;;8.07;81.90
63554;BME280;49699;48.072;7.800;2023-04-26T07:17:11;99565.97;;;8.11;81.49
63554;BME280;49699;48.072;7.800;2023-04-26T07:19:36;99577.13;;;8.13;81.17
63554;BME280;49699;48.072;7.800;2023-04-26T07:22:02;99564.72;;;8.20;81.21
63554;BME280;49699;48.072;7.800;2023-04-26T07:24:28;99560.03;;;8.28;80.79
63554;BME280;49699;48.072;7.800;2023-04-26T07:26:54;99564.19;;;8.32;80.58
63554;BME280;49699;48.072;7.800;2023-04-26T07:29:19;99560.56;;;8.36;80.16
63554;BME280;49699;48.072;7.800;2023-04-26T07:31:45;99554.25;;;8.42;80.13
63554;BME280;49699;48.072;7.800;2023-04-26T07:34:10;99550.44;;;8.49;79.83
63554;BME280;49699;48.072;7.800;2023-04-26T07:36:36;99558.78;;;8.55;79.49
63554;BME280;49699;48.072;7.800;2023-04-26T07:39:01;99567.16;;;8.60;78.92
63554;BME280;49699;48.072;7.800;2023-04-26T07:41:27;99563.31;;;8.69;78.71
63554;BME280;49699;48.072;7.800;2023-04-26T07:43:52;99554.25;;;8.78;78.31
63554;BME280;49699;48.072;7.800;2023-04-26T07:46:17;99553.03;;;8.85;77.59
63554;BME280;49699;48.072;7.800;2023-04-26T07:48:43;99556.03;;;8.94;77.53
63554;BME280;49699;48.072;7.800;2023-04-26T07:51:12;99551.69;;;8.95;77.11
63554;BME280;49699;48.072;7.800;2023-04-26T07:53:37;99553.25;;;8.97;76.90
63554;BME280;49699;48.072;7.800;2023-04-26T07:56:03;99554.88;;;9.00;76.05
63554;BME280;49699;48.072;7.800;2023-04-26T07:58:29;99557.59;;;8.97;75.91
63554;BME280;49699;48.072;7.800;2023-04-26T08:00:57;99558.53;;;8.96;75.85
63554;BME280;49699;48.072;7.800;2023-04-26T08:03:22;99563.72;;;8.96;76.07
63554;BME280;49699;48.072;7.800;2023-04-26T08:05:47;99563.13;;;8.91;75.95
63554;BME280;49699;48.072;7.800;2023-04-26T08:08:13;99553.88;;;8.85;75.94
63554;BME280;49699;48.072;7.800;2023-04-26T08:10:41;99569.44;;;8.85;75.75
63554;BME280;49699;48.072;7.800;2023-04-26T08:13:07;99557.22;;;8.87;75.73
63554;BME280;49699;48.072;7.800;2023-04-26T08:15:32;99564.88;;;8.90;75.28
63554;BME280;49699;48.072;7.800;2023-04-26T08:17:57;99560.13;;;8.98;75.14
63554;BME280;49699;48.072;7.800;2023-04-26T08:20:23;99562.91;;;9.13;74.34
63554;BME280;49699;48.072;7.800;2023-04-26T08:22:48;99563.66;;;9.32;73.83
63554;BME280;49699;48.072;7.800;2023-04-26T08:25:14;99561.34;;;9.60;72.56
63554;BME280;49699;48.072;7.800;2023-04-26T08:27:39;99556.59;;;10.01;71.22
63554;BME280;49699;48.072;7.800;2023-04-26T08:30:05;99547.81;;;10.35;70.15
63554;BME280;49699;48.072;7.800;2023-04-26T08:32:30;99551.66;;;10.60;69.10
63554;BME280;49699;48.072;7.800;2023-04-26T08:34:58;99546.53;;;10.74;68.60
63554;BME280;49699;48.072;7.800;2023-04-26T08:37:23;99545.28;;;10.95;67.85
63554;BME280;49699;48.072;7.800;2023-04-26T08:39:49;99550.28;;;11.14;67.10
63554;BME280;49699;48.072;7.800;2023-04-26T08:42:14;99543.91;;;11.34;66.47
63554;BME280;49699;48.072;7.800;2023-04-26T08:44:41;99547.75;;;11.57;65.91
63554;BME280;49699;48.072;7.800;2023-04-26T08:47:08;99540.81;;;11.86;65.21
63554;BME280;49699;48.072;7.800;2023-04-26T08:49:41;99540.78;;;12.28;63.92
63554;BME280;49699;48.072;7.800;2023-04-26T08:52:08;99536.88;;;12.75;62.49
63554;BME280;49699;48.072;7.800;2023-04-26T08:54:35;99541.56;;;12.97;61.55
63554;BME280;49699;48.072;7.800;2023-04-26T08:57:00;99541.34;;;13.00;60.96
63554;BME280;49699;48.072;7.800;2023-04-26T08:59:28;99538.81;;;12.85;61.32
63554;BME280;49699;48.072;7.800;2023-04-26T09:01:53;99540.50;;;12.86;60.97
63554;BME280;49699;48.072;7.800;2023-04-26T09:04:19;99529.88;;;13.02;60.62
63554;BME280;49699;48.072;7.800;2023-04-26T09:06:44;99535.00;;;13.04;60.11
63554;BME280;49699;48.072;7.800;2023-04-26T09:09:11;99536.78;;;13.03;60.18
63554;BME280;49699;48.072;7.800;2023-04-26T09:11:56;99538.34;;;13.06;59.98
63554;BME280;49699;48.072;7.800;2023-04-26T09:14:22;99531.81;;;12.86;60.30
63554;BME280;49699;48.072;7.800;2023-04-26T09:16:48;99534.09;;;12.78;60.89
63554;BME280;49699;48.072;7.800;2023-04-26T09:19:13;99531.75;;;12.73;60.92
63554;BME280;49699;48.072;7.800;2023-04-26T09:21:45;99529.41;;;12.56;60.81
63554;BME280;49699;48.072;7.800;2023-04-26T09:24:10;99522.66;;;12.39;61.16
63554;BME280;49699;48.072;7.800;2023-04-26T09:26:36;99526.88;;;12.28;61.60
63554;BME280;49699;48.072;7.800;2023-04-26T09:31:36;99526.59;;;12.32;61.37
63554;BME280;49699;48.072;7.800;2023-04-26T09:34:02;99518.97;;;12.29;61.43
63554;BME280;49699;48.072;7.800;2023-04-26T09:36:28;99511.69;;;12.34;61.47
63554;BME280;49699;48.072;7.800;2023-04-26T09:38:53;99520.59;;;12.44;60.85
63554;BME280;49699;48.072;7.800;2023-04-26T09:41:19;99520.59;;;12.44;61.06
63554;BME280;49699;48.072;7.800;2023-04-26T09:43:44;99516.56;;;12.53;60.81
63554;BME280;49699;48.072;7.800;2023-04-26T09:46:10;99515.66;;;12.67;60.50
63554;BME280;49699;48.072;7.800;2023-04-26T09:48:45;99522.63;;;12.93;59.65
63554;BME280;49699;48.072;7.800;2023-04-26T09:51:24;99516.66;;;13.31;58.21
63554;BME280;49699;48.072;7.800;2023-04-26T09:53:49;99515.41;;;13.62;56.63
63554;BME280;49699;48.072;7.800;2023-04-26T09:56:15;99516.56;;;13.70;56.34
63554;BME280;49699;48.072;7.800;2023-04-26T10:01:22;99512.28;;;14.18;55.39
63554;BME280;49699;48.072;7.800;2023-04-26T10:03:47;99505.94;;;14.46;54.30
63554;BME280;49699;48.072;7.800;2023-04-26T10:06:13;99500.81;;;14.69;53.67
63554;BME280;49699;48.072;7.800;2023-04-26T10:08:38;99505.75;;;14.84;53.26
63554;BME280;49699;48.072;7.800;2023-04-26T10:11:04;99504.19;;;14.82;52.80
63554;BME280;49699;48.072;7.800;2023-04-26T10:13:33;99499.56;;;14.85;53.00
63554;BME280;49699;48.072;7.800;2023-04-26T10:16:01;99504.53;;;15.12;52.58
63554;BME280;49699;48.072;7.800;2023-04-26T10:18:27;99498.19;;;15.61;51.45
63554;BME280;49699;48.072;7.800;2023-04-26T10:20:53;99492.69;;;15.97;50.30
63554;BME280;49699;48.072;7.800;2023-04-26T10:23:20;99494.47;;;15.97;50.11
63554;BME280;49699;48.072;7.800;2023-04-26T10:25:46;99498.44;;;15.80;50.94
63554;BME280;49699;48.072;7.800;2023-04-26T10:28:12;99501.06;;;15.69;51.11
63554;BME280;49699;48.072;7.800;2023-04-26T10:30:57;99498.03;;;15.51;50.67
63554;BME280;49699;48.072;7.800;2023-04-26T10:33:23;99495.78;;;15.36;51.01
63554;BME280;49699;48.072;7.800;2023-04-26T10:38:25;99484.59;;;15.67;50.25
63554;BME280;49699;48.072;7.800;2023-04-26T10:40:51;99485.22;;;15.93;49.75
63554;BME280;49699;48.072;7.800;2023-04-26T10:45:46;99494.88;;;16.47;48.22
63554;BME280;49699;48.072;7.800;2023-04-26T10:53:21;99480.25;;;16.22;47.36
63554;BME280;49699;48.072;7.800;2023-04-26T10:55:46;99470.22;;;16.16;47.91
63554;BME280;49699;48.072;7.800;2023-04-26T11:01:05;99476.50;;;15.81;48.22
63554;BME280;49699;48.072;7.800;2023-04-26T11:03:31;99469.44;;;15.59;49.04
63554;BME280;49699;48.072;7.800;2023-04-26T11:05:56;99468.13;;;15.54;49.04
63554;BME280;49699;48.072;7.800;2023-04-26T11:08:28;99467.09;;;15.56;48.67
63554;BME280;49699;48.072;7.800;2023-04-26T11:13:35;99468.09;;;15.32;48.81
63554;BME280;49699;48.072;7.800;2023-04-26T11:16:02;99456.78;;;15.31;48.19
63554;BME280;49699;48.072;7.800;2023-04-26T11:18:28;99439.88;;;15.35;47.91
63554;BME280;49699;48.072;7.800;2023-04-26T11:20:53;99447.38;;;15.51;47.28
63554;BME280;49699;48.072;7.800;2023-04-26T11:23:19;99447.25;;;15.52;46.77
63554;BME280;49699;48.072;7.800;2023-04-26T11:25:44;99442.75;;;15.66;46.78
63554;BME280;49699;48.072;7.800;2023-04-26T11:28:10;99441.53;;;15.81;46.28
63554;BME280;49699;48.072;7.800;2023-04-26T11:30:35;99448.47;;;15.93;45.99
63554;BME280;49699;48.072;7.800;2023-04-26T11:33:01;99440.06;;;16.10;45.62
63554;BME280;49699;48.072;7.800;2023-04-26T11:35:29;99434.78;;;16.21;45.05
63554;BME280;49699;48.072;7.800;2023-04-26T11:37:58;99442.44;;;16.13;44.61
63554;BME280;49699;48.072;7.800;2023-04-26T11:40:26;99439.03;;;15.90;44.31
63554;BME280;49699;48.072;7.800;2023-04-26T11:42:51;99432.63;;;15.72;44.74
63554;BME280;49699;48.072;7.800;2023-04-26T11:45:17;99433.00;;;15.56;44.57
63554;BME280;49699;48.072;7.800;2023-04-26T11:47:43;99441.81;;;15.55;44.70
63554;BME280;49699;48.072;7.800;2023-04-26T11:50:08;99434.88;;;15.54;45.29
63554;BME280;49699;48.072;7.800;2023-04-26T11:52:34;99433.94;;;15.55;45.45
63554;BME280;49699;48.072;7.800;2023-04-26T11:55:03;99439.91;;;15.57;45.69
63554;BME280;49699;48.072;7.800;2023-04-26T11:57:30;99436.31;;;15.70;45.43
63554;BME280;49699;48.072;7.800;2023-04-26T12:00:09;99433.53;;;15.82;45.53
63554;BME280;49699;48.072;7.800;2023-04-26T12:02:35;99429.63;;;15.88;45.15
63554;BME280;49699;48.072;7.800;2023-04-26T12:05:01;99426.94;;;15.99;45.20
63554;BME280;49699;48.072;7.800;2023-04-26T12:07:33;99421.28;;;16.26;44.64
63554;BME280;49699;48.072;7.800;2023-04-26T12:10:06;99423.56;;;16.51;44.02
63554;BME280;49699;48.072;7.800;2023-04-26T12:12:42;99417.34;;;16.63;43.80
63554;BME280;49699;48.072;7.800;2023-04-26T12:15:10;99418.28;;;16.62;43.49
63554;BME280;49699;48.072;7.800;2023-04-26T12:17:36;99412.94;;;16.53;43.79
63554;BME280;49699;48.072;7.800;2023-04-26T12:20:07;99418.91;;;16.55;43.66
63554;BME280;49699;48.072;7.800;2023-04-26T12:22:32;99404.22;;;16.52;43.26
63554;BME280;49699;48.072;7.800;2023-04-26T12:25:04;99399.84;;;16.42;43.12
63554;BME280;49699;48.072;7.800;2023-04-26T12:27:30;99409.91;;;16.37;43.61
63554;BME280;49699;48.072;7.800;2023-04-26T12:29:56;99405.59;;;16.36;43.28
63554;BME280;49699;48.072;7.800;2023-04-26T12:32:21;99408.88;;;16.28;42.87
63554;BME280;49699;48.072;7.800;2023-04-26T12:34:47;99407.84;;;16.08;42.46
63554;BME280;49699;48.072;7.800;2023-04-26T12:37:12;99405.75;;;15.80;42.56
63554;BME280;49699;48.072;7.800;2023-04-26T12:39:38;99402.06;;;15.60;43.27
63554;BME280;49699;48.072;7.800;2023-04-26T12:42:03;99403.16;;;15.69;43.26
63554;BME280;49699;48.072;7.800;2023-04-26T12:44:28;99400.63;;;15.89;43.22
63554;BME280;49699;48.072;7.800;2023-04-26T12:46:54;99403.59;;;15.85;43.15
63554;BME280;49699;48.072;7.800;2023-04-26T12:49:19;99398.97;;;15.66;43.55
63554;BME280;49699;48.072;7.800;2023-04-26T12:51:45;99397.94;;;15.57;43.90
63554;BME280;49699;48.072;7.800;2023-04-26T12:54:10;99396.97;;;15.58;44.27
63554;BME280;49699;48.072;7.800;2023-04-26T12:56:36;99396.97;;;15.70;44.56
63554;BME280;49699;48.072;7.800;2023-04-26T12:59:07;99392.19;;;15.75;44.76
63554;BME280;49699;48.072;7.800;2023-04-26T13:01:32;99398.47;;;15.83;44.48
63554;BME280;49699;48.072;7.800;2023-04-26T13:03:58;99398.78;;;16.01;44.17
63554;BME280;49699;48.072;7.800;2023-04-26T13:06:24;99395.09;;;16.04;43.88
63554;BME280;49699;48.072;7.800;2023-04-26T13:08:52;99403.44;;;16.09;43.89
63554;BME280;49699;48.072;7.800;2023-04-26T13:11:17;99398.91;;;16.00;43.85
63554;BME280;49699;48.072;7.800;2023-04-26T13:13:42;99402.53;;;15.87;44.08
63554;BME280;49699;48.072;7.800;2023-04-26T13:16:07;99398.84;;;15.79;44.62
63554;BME280;49699;48.072;7.800;2023-04-26T13:18:33;99395.13;;;15.92;44.30
63554;BME280;49699;48.072;7.800;2023-04-26T13:20:58;99402.84;;;16.05;43.99
63554;BME280;49699;48.072;7.800;2023-04-26T13:23:23;99398.31;;;16.07;43.48